Time;durP1;ratioP1;P1;durP2;ratioP2;P2;SDS_P1;SDS_P2;PMS_P1;PMS_P2;Temp;Humidity;BMP_temperature;BMP_pressure;BME280_temperature;BME280_humidity;BME280_pressure;Samples;Min_cycle;Max_cycle;Signal;HPM_P1;HPM_P2
2022/07/27 00:01:16;;;;;;;1.73;0.30;;;15.30;99.90;;;;;;5033646;28;20661;-91
2022/07/27 00:03:44;;;;;;;2.95;0.40;;;15.60;99.90;;;;;;5033829;28;20061;-91
2022/07/27 00:06:10;;;;;;;3.38;0.70;;;15.20;99.90;;;;;;5033246;28;20045;-91
2022/07/27 00:08:36;;;;;;;1.65;0.32;;;15.20;99.90;;;;;;5034195;28;20044;-91
2022/07/27 00:11:02;;;;;;;3.42;0.55;;;16.10;99.90;;;;;;5018222;28;20050;-92
2022/07/27 00:13:28;;;;;;;3.50;0.45;;;15.30;99.90;;;;;;5033469;28;20029;-90
2022/07/27 00:15:54;;;;;;;4.00;0.45;;;15.10;99.90;;;;;;5035075;28;20041;-90
2022/07/27 00:18:20;;;;;;;3.53;0.47;;;15.10;99.90;;;;;;5032992;28;20037;-90
2022/07/27 00:20:46;;;;;;;1.70;0.50;;;15.30;99.90;;;;;;5034504;28;20091;-92
2022/07/27 00:23:11;;;;;;;4.05;0.50;;;15.10;99.90;;;;;;5033285;28;20198;-91
2022/07/27 00:25:37;;;;;;;6.18;0.63;;;15.00;99.90;;;;;;5017607;28;20502;-90
2022/07/27 00:28:04;;;;;;;2.50;0.30;;;15.40;99.90;;;;;;5033897;28;20090;-91
2022/07/27 00:30:29;;;;;;;4.13;0.55;;;15.00;99.90;;;;;;5033090;28;20124;-90
2022/07/27 00:32:55;;;;;;;10.85;1.65;;;15.00;99.90;;;;;;5035370;28;20228;-89
2022/07/27 00:35:22;;;;;;;3.75;0.50;;;16.20;99.90;;;;;;5018981;28;20047;-89
2022/07/27 00:37:47;;;;;;;2.55;0.52;;;15.00;99.90;;;;;;5037964;28;20419;-88
2022/07/27 00:40:13;;;;;;;6.25;0.57;;;15.00;99.90;;;;;;5018978;28;20047;-89
2022/07/27 00:42:39;;;;;;;3.85;0.32;;;15.60;99.90;;;;;;5021008;28;20040;-88
2022/07/27 00:45:05;;;;;;;3.45;0.80;;;15.80;99.90;;;;;;5039578;28;20570;-89
2022/07/27 00:47:31;;;;;;;5.13;0.80;;;14.90;99.90;;;;;;5041111;28;20123;-88
2022/07/27 00:49:59;;;;;;;5.35;0.43;;;14.90;99.90;;;;;;5043064;28;20072;-88
2022/07/27 00:52:26;;;;;;;7.45;0.68;;;14.80;99.90;;;;;;5037889;28;20043;-89
2022/07/27 00:54:52;;;;;;;11.98;1.23;;;14.70;99.90;;;;;;5039330;28;20087;-89
2022/07/27 00:57:19;;;;;;;3.67;0.73;;;14.80;99.90;;;;;;5037758;28;20293;-91
2022/07/27 00:59:44;;;;;;;3.65;0.77;;;14.60;99.90;;;;;;5038069;28;20052;-89
2022/07/27 01:02:10;;;;;;;3.00;0.50;;;14.50;99.90;;;;;;5020726;28;20052;-89
2022/07/27 01:04:36;;;;;;;6.20;0.90;;;15.30;99.90;;;;;;5036826;28;20082;-90
2022/07/27 01:07:03;;;;;;;4.03;0.63;;;14.40;99.90;;;;;;5037711;28;20068;-91
2022/07/27 01:12:18;;;;;;;5.32;0.73;;;14.30;99.90;;;;;;5053575;28;20498;-89
2022/07/27 01:14:44;;;;;;;4.00;0.60;;;15.50;99.90;;;;;;5035989;28;20105;-91
2022/07/27 01:17:10;;;;;;;3.75;0.60;;;14.30;99.90;;;;;;5037105;28;20040;-90
2022/07/27 01:19:36;;;;;;;5.50;0.90;;;14.20;99.90;;;;;;5036552;28;20047;-90
2022/07/27 01:22:02;;;;;;;2.92;0.63;;;14.20;99.90;;;;;;5036020;28;20049;-89
2022/07/27 01:24:28;;;;;;;3.53;0.70;;;14.20;99.90;;;;;;5021045;28;20051;-90
2022/07/27 01:26:54;;;;;;;2.92;0.98;;;14.20;99.90;;;;;;5034800;28;20052;-90
2022/07/27 01:29:20;;;;;;;5.57;0.65;;;15.20;99.90;;;;;;5037758;28;20127;-91
2022/07/27 01:31:46;;;;;;;4.22;0.90;;;14.20;99.90;;;;;;5036028;28;20644;-91
2022/07/27 01:34:12;;;;;;;2.08;0.32;;;15.20;99.90;;;;;;5037025;28;20036;-92
2022/07/27 01:36:38;;;;;;;8.27;0.82;;;14.10;99.90;;;;;;5036047;28;20038;-89
2022/07/27 01:39:04;;;;;;;3.33;0.57;;;14.40;99.90;;;;;;5035282;28;20044;-89
2022/07/27 01:41:29;;;;;;;1.95;0.75;;;14.10;99.90;;;;;;5019766;28;20096;-89
2022/07/27 01:43:55;;;;;;;10.30;1.08;;;14.00;99.90;;;;;;5016696;28;20051;-89
2022/07/27 01:46:21;;;;;;;3.33;0.68;;;14.00;99.90;;;;;;5019911;28;20047;-90
2022/07/27 01:48:47;;;;;;;6.00;0.80;;;14.70;99.90;;;;;;5035107;28;20467;-89
2022/07/27 01:51:12;;;;;;;8.10;0.80;;;14.60;99.90;;;;;;5019304;28;20083;-89
2022/07/27 01:53:38;;;;;;;6.72;0.90;;;13.90;99.90;;;;;;5018200;28;20040;-89
2022/07/27 01:56:09;;;;;;;6.70;0.80;;;13.90;99.90;;;;;;5035375;28;20045;-89
2022/07/27 01:58:36;;;;;;;4.40;1.05;;;15.10;99.90;;;;;;5035901;28;20742;-89
2022/07/27 02:01:02;;;;;;;6.90;0.77;;;13.90;99.90;;;;;;5034614;28;20040;-89
2022/07/27 02:03:27;;;;;;;6.18;0.80;;;14.60;99.90;;;;;;5036158;28;20051;-88
2022/07/27 02:05:53;;;;;;;4.40;1.10;;;14.30;99.90;;;;;;5034214;28;20105;-89
2022/07/27 02:08:19;;;;;;;5.60;0.73;;;13.90;99.90;;;;;;5036433;28;20063;-89
2022/07/27 02:13:29;;;;;;;7.05;0.80;;;14.70;99.90;;;;;;5037561;28;20110;-89
2022/07/27 02:15:55;;;;;;;4.38;0.70;;;13.80;99.90;;;;;;5035951;28;20037;-91
2022/07/27 02:18:22;;;;;;;5.82;0.88;;;14.10;99.90;;;;;;5017040;28;20044;-91
2022/07/27 02:20:48;;;;;;;4.80;0.80;;;13.80;99.90;;;;;;5035882;28;20048;-89
2022/07/27 02:23:14;;;;;;;7.03;0.75;;;13.70;99.90;;;;;;5033657;28;20036;-89
2022/07/27 02:25:40;;;;;;;2.60;0.60;;;14.00;99.90;;;;;;5034758;28;20084;-88
2022/07/27 02:28:06;;;;;;;6.63;0.80;;;14.30;99.90;;;;;;5034134;28;20040;-89
2022/07/27 02:30:31;;;;;;;3.55;0.57;;;13.70;99.90;;;;;;5035301;28;20438;-89
2022/07/27 02:32:57;;;;;;;5.32;0.82;;;14.30;99.90;;;;;;5019181;28;20185;-91
2022/07/27 02:35:23;;;;;;;3.85;0.43;;;14.20;99.90;;;;;;5017124;28;20063;-90
2022/07/27 02:37:48;;;;;;;6.80;1.05;;;13.70;99.90;;;;;;5019390;28;20072;-89
2022/07/27 02:40:16;;;;;;;5.30;0.73;;;13.70;99.90;;;;;;5017320;28;20051;-91
2022/07/27 02:42:42;;;;;;;5.18;1.67;;;13.70;99.90;;;;;;5034989;28;20402;-91
2022/07/27 02:45:08;;;;;;;8.48;1.10;;;14.70;99.90;;;;;;5017548;28;20036;-91
2022/07/27 02:47:34;;;;;;;3.72;0.50;;;13.80;99.90;;;;;;5034558;28;20033;-91
2022/07/27 02:50:01;;;;;;;5.05;0.90;;;14.10;99.90;;;;;;5019084;28;20135;-91
2022/07/27 02:52:27;;;;;;;4.60;1.00;;;13.90;99.90;;;;;;5017209;28;20098;-94
2022/07/27 02:54:53;;;;;;;0.80;0.40;;;14.90;99.90;;;;;;5035694;28;20036;-94
2022/07/27 02:57:18;;;;;;;5.03;1.00;;;13.80;99.90;;;;;;5032941;28;20040;-92
2022/07/27 02:59:44;;;;;;;7.10;1.08;;;14.90;99.90;;;;;;5035394;28;20063;-92
2022/07/27 03:02:10;;;;;;;4.82;1.05;;;14.10;99.90;;;;;;5017236;28;20041;-93
2022/07/27 03:04:35;;;;;;;10.23;0.82;;;13.90;99.90;;;;;;5017946;28;20106;-93
2022/07/27 03:07:01;;;;;;;4.13;0.68;;;14.20;99.90;;;;;;5018598;28;20052;-92
2022/07/27 03:09:27;;;;;;;7.07;1.00;;;14.20;99.90;;;;;;5016705;28;20496;-92
2022/07/27 03:11:52;;;;;;;11.35;1.48;;;13.90;99.90;;;;;;5018387;28;20137;-91
2022/07/27 03:14:18;;;;;;;9.18;1.10;;;14.80;99.90;;;;;;5016446;28;20037;-93
2022/07/27 03:16:44;;;;;;;10.25;1.48;;;13.90;99.90;;;;;;5018580;28;20051;-91
2022/07/27 03:19:10;;;;;;;6.35;1.00;;;14.10;99.90;;;;;;5016935;28;20040;-91
2022/07/27 03:21:36;;;;;;;7.78;0.80;;;13.90;99.90;;;;;;5018059;28;20044;-91
2022/07/27 03:24:02;;;;;;;8.05;0.80;;;13.90;99.90;;;;;;5017710;28;20045;-90
2022/07/27 03:26:29;;;;;;;7.80;1.40;;;13.90;99.90;;;;;;5016767;28;20048;-91
2022/07/27 03:28:56;;;;;;;5.63;1.58;;;13.90;99.90;;;;;;5019066;28;20131;-90
2022/07/27 03:31:22;;;;;;;2.70;0.77;;;14.60;99.90;;;;;;5016320;28;20174;-90
2022/07/27 03:33:48;;;;;;;7.95;1.00;;;13.90;99.90;;;;;;5034553;28;20046;-91
2022/07/27 03:36:14;;;;;;;5.68;0.90;;;13.90;99.90;;;;;;5032491;28;20127;-90
2022/07/27 03:38:40;;;;;;;8.73;0.93;;;14.00;99.90;;;;;;5017985;28;20411;-90
2022/07/27 03:41:06;;;;;;;5.70;0.85;;;14.20;99.90;;;;;;5017162;28;20040;-91
2022/07/27 03:43:32;;;;;;;4.15;0.60;;;14.80;99.90;;;;;;5033192;28;20434;-91
2022/07/27 03:45:58;;;;;;;6.05;0.88;;;14.10;99.90;;;;;;5034518;28;20368;-91
2022/07/27 03:48:26;;;;;;;7.20;1.50;;;13.80;99.90;;;;;;5032005;28;20059;-91
2022/07/27 03:50:52;;;;;;;4.95;0.90;;;13.90;99.90;;;;;;5034653;28;20036;-91
2022/07/27 03:53:20;;;;;;;3.78;1.38;;;14.00;99.90;;;;;;5032956;28;20480;-91
2022/07/27 03:55:47;;;;;;;8.20;1.13;;;13.90;99.90;;;;;;5017815;28;20052;-92
2022/07/27 03:58:12;;;;;;;5.32;0.77;;;13.90;99.90;;;;;;5017573;28;20190;-91
2022/07/27 04:00:38;;;;;;;3.85;0.73;;;13.90;99.90;;;;;;5032737;28;20055;-92
2022/07/27 04:03:04;;;;;;;7.65;1.77;;;14.00;99.90;;;;;;5034236;28;20055;-91
2022/07/27 04:05:30;;;;;;;7.43;0.90;;;13.90;99.90;;;;;;5016312;28;20044;-91
2022/07/27 04:07:56;;;;;;;2.60;0.55;;;14.70;99.90;;;;;;5039021;28;20139;-91
2022/07/27 04:10:23;;;;;;;3.55;0.88;;;14.50;99.90;;;;;;5039781;28;20086;-91
2022/07/27 04:12:49;;;;;;;5.88;1.08;;;13.00;99.90;;;;;;5042155;28;20049;-91
2022/07/27 04:15:15;;;;;;;2.95;0.75;;;15.00;99.90;;;;;;5024309;28;20569;-92
2022/07/27 04:17:41;;;;;;;6.20;0.90;;;13.90;99.90;;;;;;5040540;28;20719;-90
2022/07/27 04:20:07;;;;;;;2.40;0.95;;;13.90;99.90;;;;;;5041631;28;20054;-90
2022/07/27 04:22:33;;;;;;;3.17;0.60;;;13.90;99.90;;;;;;5038751;28;20044;-87
2022/07/27 04:24:59;;;;;;;3.22;0.52;;;13.80;99.90;;;;;;5025993;28;20040;-91
2022/07/27 04:27:25;;;;;;;7.80;0.82;;;14.20;99.90;;;;;;5043379;28;20143;-88
2022/07/27 04:29:50;;;;;;;10.75;1.23;;;13.80;99.90;;;;;;5058939;28;20052;-87
2022/07/27 04:32:16;;;;;;;9.45;1.25;;;15.00;99.90;;;;;;5025833;28;20099;-87
2022/07/27 04:34:42;;;;;;;6.43;0.82;;;13.90;99.90;;;;;;5041608;28;20040;-88
2022/07/27 04:37:08;;;;;;;7.13;1.42;;;13.90;99.90;;;;;;5039385;28;20048;-88
2022/07/27 04:39:33;;;;;;;2.65;0.70;;;13.90;99.90;;;;;;5018142;28;20102;-87
2022/07/27 04:41:59;;;;;;;5.68;0.80;;;14.00;99.90;;;;;;5020470;28;20044;-89
2022/07/27 04:44:25;;;;;;;7.63;1.00;;;14.10;99.90;;;;;;5018429;28;20044;-89
2022/07/27 04:46:50;;;;;;;4.68;0.57;;;14.10;99.90;;;;;;5053197;28;20086;-88
2022/07/27 04:49:16;;;;;;;6.22;0.85;;;14.20;99.90;;;;;;5035615;28;20041;-89
2022/07/27 04:51:43;;;;;;;5.07;0.90;;;14.20;99.90;;;;;;5036265;28;20140;-89
2022/07/27 04:54:10;;;;;;;8.45;1.10;;;14.20;99.90;;;;;;5020327;28;20041;-91
2022/07/27 04:56:35;;;;;;;9.27;1.15;;;14.70;99.90;;;;;;5019477;28;20488;-92
2022/07/27 04:59:01;;;;;;;6.60;1.00;;;14.30;99.90;;;;;;5037233;28;20051;-88
2022/07/27 05:01:27;;;;;;;3.05;1.08;;;15.10;99.90;;;;;;5018544;28;20033;-89
2022/07/27 05:03:53;;;;;;;8.15;2.03;;;15.10;99.90;;;;;;5036182;28;20592;-88
2022/07/27 05:06:19;;;;;;;5.72;0.90;;;13.80;99.90;;;;;;5034800;28;20053;-87
2022/07/27 05:08:44;;;;;;;7.70;1.17;;;14.50;99.90;;;;;;5035845;28;20044;-88
2022/07/27 05:11:10;;;;;;;7.13;1.70;;;14.60;99.90;;;;;;5035602;28;20051;-88
2022/07/27 05:13:39;;;;;;;6.10;1.25;;;14.60;99.90;;;;;;5034657;28;20044;-88
2022/07/27 05:16:09;;;;;;;12.48;1.95;;;14.70;99.90;;;;;;5036277;28;20378;-87
2022/07/27 05:18:36;;;;;;;5.95;1.23;;;14.70;99.90;;;;;;5069378;28;20048;-91
2022/07/27 05:21:02;;;;;;;7.38;1.77;;;14.70;99.90;;;;;;5037105;28;20386;-89
2022/07/27 05:23:27;;;;;;;8.00;1.05;;;14.70;99.90;;;;;;5034518;28;20043;-89
2022/07/27 05:25:53;;;;;;;9.45;1.30;;;14.90;99.90;;;;;;5035837;28;20131;-87
2022/07/27 05:28:21;;;;;;;7.80;1.40;;;14.70;99.90;;;;;;5035681;28;20040;-89
2022/07/27 05:30:47;;;;;;;4.63;0.80;;;14.60;99.90;;;;;;5034289;28;20044;-87
2022/07/27 05:33:12;;;;;;;6.43;1.58;;;14.60;99.90;;;;;;5019910;28;20391;-89
2022/07/27 05:35:38;;;;;;;6.70;1.20;;;15.00;99.90;;;;;;5033890;28;20442;-88
2022/07/27 05:38:04;;;;;;;3.65;0.95;;;14.60;99.90;;;;;;5018997;28;20453;-88
2022/07/27 05:40:29;;;;;;;4.32;1.05;;;14.60;99.90;;;;;;5017834;28;20067;-89
2022/07/27 05:42:56;;;;;;;9.82;1.67;;;15.40;99.90;;;;;;5035311;28;20141;-87
2022/07/27 05:45:22;;;;;;;5.35;1.20;;;14.60;99.90;;;;;;5035131;28;20032;-88
2022/07/27 05:47:48;;;;;;;3.47;1.02;;;14.60;99.90;;;;;;5051142;28;20403;-89
2022/07/27 05:50:15;;;;;;;4.43;0.95;;;14.70;99.90;;;;;;5036013;28;20123;-92
2022/07/27 05:52:42;;;;;;;4.82;0.90;;;14.90;99.90;;;;;;5034296;28;20127;-90
2022/07/27 05:55:08;;;;;;;5.97;0.95;;;14.70;99.90;;;;;;5035874;28;20045;-93
2022/07/27 05:57:35;;;;;;;3.45;0.90;;;14.80;99.90;;;;;;5034174;28;20076;-91
2022/07/27 06:00:01;;;;;;;7.20;1.17;;;14.80;99.90;;;;;;5036055;28;20079;-90
2022/07/27 06:02:30;;;;;;;6.85;1.27;;;14.90;99.90;;;;;;5034912;28;20047;-91
2022/07/27 06:04:56;;;;;;;3.22;0.77;;;14.90;99.90;;;;;;5033989;28;20059;-89
2022/07/27 06:10:06;;;;;;;7.97;1.05;;;15.50;99.90;;;;;;5051326;28;20106;-93
2022/07/27 06:12:38;;;;;;;8.82;1.50;;;15.10;99.90;;;;;;5036346;28;20542;-92
2022/07/27 06:15:05;;;;;;;4.15;1.40;;;15.00;99.90;;;;;;5035594;28;20133;-92
2022/07/27 06:17:30;;;;;;;5.57;1.20;;;15.10;99.90;;;;;;5036566;28;20049;-92
2022/07/27 06:19:56;;;;;;;4.40;0.95;;;15.40;99.90;;;;;;5037398;28;20629;-93
2022/07/27 06:22:22;;;;;;;3.78;1.60;;;15.20;99.90;;;;;;5040189;28;20036;-90
2022/07/27 06:24:47;;;;;;;7.32;1.45;;;15.30;99.90;;;;;;5026882;28;20040;-86
2022/07/27 06:27:13;;;;;;;2.15;0.70;;;15.40;99.90;;;;;;5070991;28;20044;-88
2022/07/27 06:29:39;;;;;;;5.82;1.73;;;15.60;99.90;;;;;;5039187;28;20479;-89
2022/07/27 06:32:05;;;;;;;5.10;1.25;;;15.70;99.90;;;;;;5037493;28;20131;-90
2022/07/27 06:34:31;;;;;;;5.10;0.80;;;15.80;99.90;;;;;;5019879;28;20556;-92
2022/07/27 06:36:59;;;;;;;8.15;1.50;;;15.90;99.90;;;;;;5019948;28;20044;-91
2022/07/27 06:39:26;;;;;;;3.90;0.88;;;16.00;99.90;;;;;;5017766;28;20553;-91
2022/07/27 06:41:52;;;;;;;9.68;0.68;;;16.10;99.90;;;;;;5036004;28;20049;-92
2022/07/27 06:44:20;;;;;;;10.30;0.90;;;16.30;99.90;;;;;;5034093;28;20349;-89
2022/07/27 06:46:46;;;;;;;3.00;0.90;;;16.90;99.90;;;;;;5035428;28;20032;-91
2022/07/27 06:49:12;;;;;;;4.00;1.15;;;16.50;99.90;;;;;;5017476;28;20496;-92
2022/07/27 06:51:38;;;;;;;5.20;1.05;;;16.60;99.90;;;;;;5034262;28;20047;-88
2022/07/27 06:54:04;;;;;;;4.18;0.57;;;16.70;99.90;;;;;;5049860;28;20064;-88
2022/07/27 06:56:31;;;;;;;3.42;0.60;;;16.90;99.90;;;;;;5032550;28;20048;-89
2022/07/27 06:58:56;;;;;;;7.30;0.90;;;17.00;99.90;;;;;;5034766;28;20052;-89
2022/07/27 07:01:22;;;;;;;6.70;0.60;;;17.10;99.90;;;;;;5048498;28;20044;-88
2022/07/27 07:03:48;;;;;;;2.70;0.70;;;17.30;99.90;;;;;;5049958;28;20052;-87
2022/07/27 07:06:13;;;;;;;10.43;0.60;;;17.30;99.90;;;;;;5032116;28;20377;-90
2022/07/27 07:08:39;;;;;;;2.53;0.52;;;17.40;99.90;;;;;;5016677;28;20036;-88
2022/07/27 07:11:05;;;;;;;4.63;0.70;;;17.50;99.90;;;;;;5033043;28;20048;-89
2022/07/27 07:13:32;;;;;;;3.45;1.13;;;17.70;99.90;;;;;;5032857;28;20403;-88
2022/07/27 07:15:58;;;;;;;2.58;0.57;;;17.80;99.90;;;;;;5034145;28;20039;-89
2022/07/27 07:18:24;;;;;;;3.42;0.40;;;18.00;99.90;;;;;;5016164;28;20044;-90
2022/07/27 07:20:49;;;;;;;6.50;0.63;;;18.00;99.90;;;;;;5034199;28;20786;-92
2022/07/27 07:23:15;;;;;;;5.78;0.73;;;18.00;99.90;;;;;;5016114;28;20097;-91
2022/07/27 07:25:41;;;;;;;4.90;0.50;;;18.00;99.90;;;;;;5017648;28;20040;-88
2022/07/27 07:28:07;;;;;;;8.30;1.10;;;17.90;99.90;;;;;;5032763;28;20463;-86
2022/07/27 07:30:32;;;;;;;4.40;1.08;;;18.10;99.90;;;;;;5033005;28;20490;-91
2022/07/27 07:32:58;;;;;;;8.45;1.35;;;17.60;99.90;;;;;;5033312;28;20079;-90
2022/07/27 07:35:24;;;;;;;5.45;1.33;;;17.50;99.90;;;;;;5031403;28;20079;-89
2022/07/27 07:37:50;;;;;;;3.88;0.50;;;17.40;99.90;;;;;;5033887;28;20044;-90
2022/07/27 07:40:17;;;;;;;4.60;0.95;;;17.20;99.90;;;;;;5031811;28;20117;-90
2022/07/27 07:42:53;;;;;;;2.47;0.70;;;17.20;99.90;;;;;;5048948;28;20480;-89
2022/07/27 07:45:20;;;;;;;3.35;0.65;;;17.10;99.90;;;;;;5032932;28;20506;-89
2022/07/27 07:47:46;;;;;;;5.05;0.82;;;17.10;99.90;;;;;;5032190;28;20072;-87
2022/07/27 07:50:12;;;;;;;5.32;1.13;;;17.00;99.90;;;;;;5017177;28;20098;-89
2022/07/27 07:52:38;;;;;;;5.82;0.80;;;17.40;99.90;;;;;;5031101;28;20041;-89
2022/07/27 07:55:04;;;;;;;2.03;0.60;;;17.00;99.90;;;;;;5049788;28;20113;-88
2022/07/27 07:57:30;;;;;;;4.82;1.00;;;17.10;99.90;;;;;;5031858;28;20488;-90
2022/07/27 07:59:55;;;;;;;7.07;1.27;;;17.10;99.90;;;;;;5016549;28;20129;-89
2022/07/27 08:02:21;;;;;;;5.47;0.77;;;17.20;99.90;;;;;;5031901;28;20150;-88
2022/07/27 08:04:47;;;;;;;8.13;0.90;;;17.20;99.90;;;;;;5031818;28;20049;-89
2022/07/27 08:07:12;;;;;;;7.95;1.38;;;17.20;99.90;;;;;;5049411;28;20048;-86
2022/07/27 08:09:38;;;;;;;4.47;0.90;;;17.30;99.90;;;;;;5047761;28;20646;-86
2022/07/27 08:12:05;;;;;;;5.10;0.80;;;17.30;99.90;;;;;;5049441;28;20044;-87
2022/07/27 08:14:32;;;;;;;6.20;0.65;;;17.50;99.90;;;;;;5031044;28;20159;-87
2022/07/27 08:16:57;;;;;;;5.22;0.85;;;17.50;99.90;;;;;;5048912;28;20036;-87
2022/07/27 08:19:23;;;;;;;9.75;0.77;;;17.50;99.90;;;;;;5032042;28;20044;-88
2022/07/27 08:21:49;;;;;;;5.50;0.90;;;17.60;99.90;;;;;;5031889;28;20045;-87
2022/07/27 08:24:15;;;;;;;4.97;0.82;;;17.60;99.90;;;;;;5032485;28;20037;-88
2022/07/27 08:26:40;;;;;;;5.38;0.73;;;17.60;99.90;;;;;;5031567;28;20110;-89
2022/07/27 08:29:06;;;;;;;6.75;0.82;;;18.00;99.90;;;;;;5049643;28;20582;-89
2022/07/27 08:31:32;;;;;;;3.53;0.85;;;17.60;99.90;;;;;;5030888;28;20047;-88
2022/07/27 08:33:57;;;;;;;3.30;0.47;;;17.60;99.90;;;;;;5032421;28;20043;-88
2022/07/27 08:36:23;;;;;;;4.18;0.85;;;17.60;99.90;;;;;;5047967;28;20083;-88
2022/07/27 08:38:49;;;;;;;7.13;0.63;;;17.60;99.90;;;;;;5032586;28;20088;-88
2022/07/27 08:41:17;;;;;;;2.42;0.55;;;17.60;99.90;;;;;;5032988;28;20086;-88
2022/07/27 08:43:46;;;;;;;5.00;1.05;;;17.70;99.90;;;;;;5047270;28;20041;-87
2022/07/27 08:46:16;;;;;;;3.72;0.65;;;17.80;99.90;;;;;;5032886;28;20036;-87
2022/07/27 08:48:42;;;;;;;5.10;0.70;;;17.90;99.90;;;;;;5047314;28;20051;-86
2022/07/27 08:51:09;;;;;;;6.22;0.82;;;18.00;99.90;;;;;;5049138;28;20048;-87
2022/07/27 08:53:35;;;;;;;4.45;0.60;;;18.20;99.90;;;;;;5048484;28;20040;-87
2022/07/27 08:56:00;;;;;;;4.32;0.63;;;18.40;99.90;;;;;;5035780;28;20047;-86
2022/07/27 08:58:26;;;;;;;1.88;0.40;;;18.50;99.90;;;;;;5052725;28;20051;-87
2022/07/27 09:00:52;;;;;;;2.95;0.52;;;18.70;99.90;;;;;;5050973;28;20040;-88
2022/07/27 09:03:20;;;;;;;11.45;0.75;;;18.90;99.90;;;;;;5035814;28;20117;-87
2022/07/27 09:05:52;;;;;;;3.13;0.57;;;19.00;99.90;;;;;;5050856;28;20141;-86
2022/07/27 09:08:24;;;;;;;5.10;0.65;;;19.10;99.90;;;;;;5052631;28;20106;-86
2022/07/27 09:10:53;;;;;;;21.00;1.70;;;19.20;99.90;;;;;;5035109;28;20048;-87
2022/07/27 09:13:27;;;;;;;2.45;0.50;;;19.30;99.90;;;;;;5051501;28;20048;-87
2022/07/27 09:16:03;;;;;;;2.92;0.40;;;19.60;99.90;;;;;;5036283;28;20409;-87
2022/07/27 09:18:32;;;;;;;2.30;0.40;;;19.40;99.90;;;;;;5034408;28;20056;-85
2022/07/27 09:21:20;;;;;;;2.22;0.60;;;19.50;99.90;;;;;;5035579;28;20040;-84
2022/07/27 09:24:12;;;;;;;3.08;0.50;;;19.80;99.90;;;;;;5034780;28;20416;-83
2022/07/27 09:26:38;;;;;;;0.47;0.30;;;20.00;99.90;;;;;;5051132;28;20048;-86
2022/07/27 09:29:07;;;;;;;3.00;0.75;;;20.10;99.90;;;;;;5035930;28;20328;-84
2022/07/27 09:31:48;;;;;;;1.95;0.40;;;20.20;99.90;;;;;;5050815;28;20501;-85
2022/07/27 09:34:32;;;;;;;3.95;0.52;;;20.20;99.90;;;;;;5052063;28;20059;-86
2022/07/27 09:36:58;;;;;;;3.95;0.50;;;20.20;99.90;;;;;;5035713;28;20040;-87
2022/07/27 09:39:26;;;;;;;2.25;0.50;;;20.20;99.90;;;;;;5034906;28;20044;-88
2022/07/27 09:41:58;;;;;;;2.75;0.47;;;20.20;99.90;;;;;;5040154;28;20052;-88
2022/07/27 09:44:36;;;;;;;2.83;0.43;;;20.30;99.90;;;;;;5035229;28;20048;-88
2022/07/27 09:47:25;;;;;;;6.38;0.50;;;20.50;99.90;;;;;;5036397;28;20044;-90
2022/07/27 09:49:52;;;;;;;1.58;0.30;;;20.60;97.60;;;;;;5052031;28;20170;-88
2022/07/27 09:52:26;;;;;;;3.72;0.60;;;20.70;99.60;;;;;;5034860;28;20051;-89
2022/07/27 09:54:52;;;;;;;4.57;0.43;;;20.80;98.00;;;;;;5036002;28;20052;-90
2022/07/27 09:57:18;;;;;;;3.88;0.30;;;20.90;98.60;;;;;;5034306;28;20041;-89
2022/07/27 09:59:44;;;;;;;7.95;0.40;;;20.80;98.60;;;;;;5019678;28;20063;-91
2022/07/27 10:02:12;;;;;;;0.82;0.30;;;20.80;98.40;;;;;;5018094;28;20033;-89
2022/07/27 10:04:38;;;;;;;4.38;0.38;;;20.70;97.80;;;;;;5051020;28;20131;-90
2022/07/27 10:07:05;;;;;;;2.08;0.30;;;20.60;98.10;;;;;;5035290;28;20075;-90
2022/07/27 10:09:31;;;;;;;1.83;0.47;;;20.60;98.20;;;;;;5034114;28;20048;-90
2022/07/27 10:11:57;;;;;;;3.70;0.70;;;20.60;98.10;;;;;;5036157;28;20408;-90
2022/07/27 10:14:24;;;;;;;2.38;0.60;;;20.60;97.80;;;;;;5033587;28;20047;-88
2022/07/27 10:16:51;;;;;;;4.90;0.50;;;20.50;97.70;;;;;;5051585;28;20044;-89
2022/07/27 10:19:24;;;;;;;3.08;0.40;;;20.40;97.40;;;;;;5033672;28;20040;-89
2022/07/27 10:21:50;;;;;;;1.13;0.22;;;20.30;96.70;;;;;;5068527;28;20484;-88
2022/07/27 10:24:33;;;;;;;2.35;0.55;;;20.40;97.30;;;;;;5051144;28;20044;-89
2022/07/27 10:27:16;;;;;;;;;;;20.60;95.60;;;;;;5049970;28;20080;-87
2022/07/27 10:29:42;;;;;;;2.65;0.50;;;20.70;92.90;;;;;;5051001;28;19920;-87
2022/07/27 10:32:08;;;;;;;1.90;0.30;;;20.60;97.20;;;;;;5050339;28;20044;-87
2022/07/27 10:34:42;;;;;;;2.10;0.30;;;20.60;97.10;;;;;;5067386;28;20543;-88
2022/07/27 10:37:11;;;;;;;1.92;0.45;;;20.60;95.20;;;;;;5051056;28;20109;-87
2022/07/27 10:39:49;;;;;;;3.03;0.35;;;20.80;96.50;;;;;;5049287;28;20472;-86
2022/07/27 10:42:24;;;;;;;2.08;0.40;;;21.00;96.60;;;;;;5067367;28;20509;-87
2022/07/27 10:45:02;;;;;;;2.90;0.28;;;21.30;95.30;;;;;;5033202;28;20105;-85
2022/07/27 10:47:30;;;;;;;3.03;0.30;;;21.50;93.60;;;;;;5068076;28;20079;-85
2022/07/27 10:50:14;;;;;;;2.25;0.50;;;21.50;94.70;;;;;;5068866;28;20037;-85
2022/07/27 10:52:50;;;;;;;2.17;0.28;;;21.70;93.20;;;;;;5066827;28;20047;-85
2022/07/27 10:55:31;;;;;;;5.93;0.70;;;21.90;94.40;;;;;;5050214;28;20047;-84
2022/07/27 10:58:13;;;;;;;1.48;0.30;;;22.10;93.40;;;;;;5033625;28;20052;-85
2022/07/27 11:00:48;;;;;;;1.75;0.40;;;22.30;95.00;;;;;;5032439;28;20040;-85
2022/07/27 11:03:21;;;;;;;3.40;0.35;;;22.40;90.50;;;;;;5033952;28;20405;-85
2022/07/27 11:05:56;;;;;;;1.10;0.30;;;22.20;90.00;;;;;;5048826;28;20063;-83
2022/07/27 11:08:30;;;;;;;4.15;0.30;;;21.90;88.50;;;;;;5050352;28;20044;-84
2022/07/27 11:10:57;;;;;;;1.25;0.17;;;21.70;90.40;;;;;;5033354;28;20056;-85
2022/07/27 11:13:24;;;;;;;2.92;0.65;;;21.50;91.60;;;;;;5032771;28;20067;-84
2022/07/27 11:15:58;;;;;;;6.50;0.40;;;21.30;92.00;;;;;;5050493;28;20051;-84
2022/07/27 11:18:28;;;;;;;2.03;0.40;;;21.40;93.00;;;;;;5031793;28;20048;-84
2022/07/27 11:21:18;;;;;;;0.75;0.30;;;21.50;93.00;;;;;;5050518;28;20470;-84
2022/07/27 11:23:46;;;;;;;2.83;0.30;;;21.50;90.90;;;;;;5024535;28;20056;-85
2022/07/27 11:26:12;;;;;;;2.70;0.40;;;21.40;92.60;;;;;;5032539;28;20044;-84
2022/07/27 11:28:38;;;;;;;3.03;0.50;;;21.20;92.50;;;;;;5050756;28;20044;-85
2022/07/27 11:31:06;;;;;;;0.95;0.20;;;21.00;92.10;;;;;;5032180;28;20383;-85
2022/07/27 11:33:32;;;;;;;2.85;0.30;;;20.80;91.50;;;;;;5050842;28;20385;-84
2022/07/27 11:36:04;;;;;;;4.30;0.43;;;21.40;92.20;;;;;;5015585;28;20041;-84
2022/07/27 11:38:47;;;;;;;2.08;0.55;;;20.00;92.50;;;;;;5033377;28;20036;-84
2022/07/27 11:41:28;;;;;;;1.13;0.50;;;20.10;92.40;;;;;;5067415;28;20052;-84
2022/07/27 11:43:58;;;;;;;1.73;0.30;;;21.40;92.60;;;;;;5032563;28;20048;-85
2022/07/27 11:46:33;;;;;;;3.72;0.45;;;21.70;92.80;;;;;;5051470;28;20641;-85
2022/07/27 11:49:08;;;;;;;4.18;0.38;;;22.00;92.40;;;;;;5049067;28;20050;-86
2022/07/27 11:51:44;;;;;;;3.50;0.50;;;22.30;92.10;;;;;;5033851;28;20037;-85
2022/07/27 11:54:22;;;;;;;1.98;0.43;;;22.30;91.10;;;;;;5050970;28;20392;-85
2022/07/27 11:56:55;;;;;;;2.92;0.40;;;22.30;91.50;;;;;;5031986;28;20059;-85
2022/07/27 11:59:29;;;;;;;1.90;0.50;;;22.40;91.90;;;;;;5034349;28;20190;-85
2022/07/27 12:01:57;;;;;;;3.95;0.80;;;22.30;91.20;;;;;;5033446;28;20164;-85
2022/07/27 12:04:32;;;;;;;3.33;0.40;;;22.10;92.20;;;;;;5034146;28;20051;-85
2022/07/27 12:07:06;;;;;;;1.63;0.40;;;21.70;91.60;;;;;;5050851;28;20052;-85
2022/07/27 12:09:38;;;;;;;0.88;0.30;;;21.40;91.30;;;;;;5049409;28;20047;-85
2022/07/27 12:12:26;;;;;;;5.72;0.52;;;21.20;92.10;;;;;;5050575;28;20424;-84
2022/07/27 12:14:57;;;;;;;6.05;0.50;;;21.00;93.50;;;;;;5032832;28;20048;-85
2022/07/27 12:17:30;;;;;;;3.05;0.50;;;20.50;94.10;;;;;;5032405;28;20057;-84
2022/07/27 12:20:11;;;;;;;1.38;0.45;;;21.40;95.50;;;;;;5034062;28;20052;-84
2022/07/27 12:22:40;;;;;;;3.42;0.52;;;21.60;92.60;;;;;;5031654;28;20048;-86
2022/07/27 12:25:24;;;;;;;4.25;0.80;;;21.50;93.30;;;;;;5033211;28;20045;-85
2022/07/27 12:28:03;;;;;;;3.95;0.70;;;21.30;92.80;;;;;;5033020;28;20032;-84
2022/07/27 12:30:43;;;;;;;9.85;0.63;;;21.10;92.90;;;;;;5036149;28;20059;-84
2022/07/27 12:33:30;;;;;;;2.70;0.38;;;21.00;94.20;;;;;;5037402;28;20055;-84
2022/07/27 12:35:58;;;;;;;3.45;0.60;;;21.00;94.00;;;;;;5070307;28;20045;-85
2022/07/27 12:38:40;;;;;;;2.88;0.52;;;21.20;94.40;;;;;;5052839;28;20126;-84
2022/07/27 12:41:06;;;;;;;;;;;21.50;93.70;;;;;;5053827;28;20376;-85
2022/07/27 12:43:32;;;;;;;1.35;0.32;;;21.70;91.60;;;;;;5034975;28;19921;-85
2022/07/27 12:46:10;;;;;;;0.55;0.20;;;21.70;93.10;;;;;;5054222;28;20045;-85
2022/07/27 12:48:41;;;;;;;3.75;0.50;;;21.60;90.40;;;;;;5051975;28;20399;-84
2022/07/27 12:51:08;;;;;;;5.00;0.40;;;21.40;91.00;;;;;;5035801;28;20147;-84
2022/07/27 12:53:36;;;;;;;1.75;0.40;;;21.30;90.50;;;;;;5052109;28;20082;-84
2022/07/27 12:56:05;;;;;;;2.78;0.40;;;21.40;89.20;;;;;;5070195;28;20052;-84
2022/07/27 12:58:31;;;;;;;3.67;0.55;;;21.40;88.20;;;;;;5053608;28;20048;-84
2022/07/27 13:00:57;;;;;;;2.00;0.73;;;21.50;89.50;;;;;;5035096;28;20411;-84